BOX1120 KJFK-EDDF
Flight info
| Callsign | BOX1120 |
|---|---|
| Flight time | N/A |
| Altitude | 35000 |
| Route | MERIT DCT HFD DCT PUT DCT BOS DCT TUSKY N269B NICSO/M083F360 DCT 48N050W 50N040W 52N030W 54N020W DCT DOGAL DCT BEXET/N0475F370 DCT CON DCT DEXEN UY124 DOLOP DCT KEPAD L15 FINMA DCT CHT DCT ITVIP DCT KONAN UL607 SPI T180 NIVNU T847 IMCOM IMCOM1B |
| Aircraft | B77L/H-SDE1E2E3FGHIJ2J3J4J5M1RWXY/LB1D1 |
Departure
| Time | N/A |
|---|---|
| Airport | John F. Kennedy International Airport (KJFK) |
Arrival
| Time | 2026-05-05 01:17 |
|---|---|
| Airport | Frankfurt Main Airport (EDDF) |
| Time | Latitude | Longitude | Altitude | Speed | Heading |
|---|---|---|---|---|---|
| 2026-05-04 23:06 | 54.01405 | -15.80979 | 35004 ft | 468 kts | 91° |
| 2026-05-04 23:06 | 54.01245 | -15.69904 | 35001 ft | 468 kts | 91° |
| 2026-05-04 23:07 | 54.01075 | -15.58844 | 34996 ft | 468 kts | 91° |
| 2026-05-04 23:07 | 54.00895 | -15.47831 | 35003 ft | 468 kts | 91° |
| 2026-05-04 23:08 | 54.00705 | -15.36762 | 35002 ft | 468 kts | 91° |
| 2026-05-04 23:08 | 54.00504 | -15.25709 | 35004 ft | 468 kts | 92° |
| 2026-05-04 23:09 | 54.00294 | -15.14649 | 35000 ft | 468 kts | 92° |
| 2026-05-04 23:09 | 54.00075 | -15.03582 | 35003 ft | 468 kts | 92° |
| 2026-05-04 23:10 | 53.99938 | -14.92757 | 35001 ft | 468 kts | 90° |
| 2026-05-04 23:10 | 54.00008 | -14.81698 | 35003 ft | 468 kts | 89° |
| 2026-05-04 23:11 | 54.00076 | -14.70626 | 35003 ft | 468 kts | 89° |
| 2026-05-04 23:11 | 54.00102 | -14.59626 | 35004 ft | 468 kts | 90° |
| 2026-05-04 23:12 | 54.00104 | -14.48547 | 35002 ft | 468 kts | 90° |
| 2026-05-04 23:12 | 54.00096 | -14.37486 | 35001 ft | 468 kts | 90° |
| 2026-05-04 23:13 | 54.00079 | -14.26418 | 35003 ft | 468 kts | 90° |
| 2026-05-04 23:13 | 54.00053 | -14.15345 | 35005 ft | 468 kts | 90° |
| 2026-05-04 23:14 | 54.00018 | -14.04344 | 35002 ft | 468 kts | 90° |
| 2026-05-04 23:14 | 53.99996 | -13.93497 | 35002 ft | 468 kts | 90° |
| 2026-05-04 23:15 | 54.00011 | -13.87939 | 35128 ft | 472 kts | 90° |
| 2026-05-04 23:15 | 54.00031 | -13.82367 | 35552 ft | 471 kts | 89° |
| 2026-05-04 23:15 | 54.00050 | -13.76819 | 36060 ft | 467 kts | 90° |
| 2026-05-04 23:15 | 54.00065 | -13.71300 | 36525 ft | 465 kts | 90° |
| 2026-05-04 23:16 | 54.00075 | -13.65811 | 36908 ft | 465 kts | 90° |
| 2026-05-04 23:16 | 54.00081 | -13.60289 | 37003 ft | 471 kts | 90° |
| 2026-05-04 23:16 | 54.00083 | -13.49146 | 36995 ft | 468 kts | 90° |
| 2026-05-04 23:17 | 54.00072 | -13.38229 | 36998 ft | 463 kts | 90° |
| 2026-05-04 23:17 | 54.00056 | -13.29111 | 37002 ft | 463 kts | 90° |
| 2026-05-04 23:18 | 54.00027 | -13.18020 | 37005 ft | 463 kts | 90° |
| 2026-05-04 23:18 | 53.99989 | -13.07083 | 37003 ft | 463 kts | 90° |
| 2026-05-04 23:19 | 53.99942 | -12.96362 | 37002 ft | 464 kts | 90° |
| 2026-05-04 23:19 | 53.99884 | -12.85392 | 37002 ft | 464 kts | 90° |
| 2026-05-04 23:20 | 53.99815 | -12.74418 | 37002 ft | 465 kts | 90° |
| 2026-05-04 23:20 | 53.99737 | -12.63417 | 37002 ft | 465 kts | 91° |
| 2026-05-04 23:21 | 53.99650 | -12.52498 | 37001 ft | 465 kts | 91° |
| 2026-05-04 23:21 | 53.99551 | -12.41491 | 37001 ft | 465 kts | 91° |
| 2026-05-04 23:22 | 53.99443 | -12.30492 | 37001 ft | 465 kts | 91° |
| 2026-05-04 23:22 | 53.99345 | -12.21345 | 37001 ft | 465 kts | 91° |
| 2026-05-04 23:23 | 53.99191 | -12.08118 | 37001 ft | 465 kts | 91° |
| 2026-05-04 23:23 | 53.99056 | -11.97367 | 37001 ft | 465 kts | 91° |
| 2026-05-04 23:24 | 53.98907 | -11.86383 | 37001 ft | 465 kts | 91° |
| 2026-05-04 23:24 | 53.98750 | -11.75457 | 37001 ft | 465 kts | 91° |
| 2026-05-04 23:25 | 53.98581 | -11.64467 | 37001 ft | 465 kts | 91° |
| 2026-05-04 23:25 | 53.98403 | -11.53479 | 37001 ft | 465 kts | 91° |
| 2026-05-04 23:26 | 53.98215 | -11.42493 | 37001 ft | 465 kts | 91° |
| 2026-05-04 23:26 | 53.98016 | -11.31514 | 37001 ft | 465 kts | 92° |
| 2026-05-04 23:27 | 53.97809 | -11.20596 | 37001 ft | 465 kts | 92° |
| 2026-05-04 23:27 | 53.97590 | -11.09620 | 37001 ft | 465 kts | 92° |
| 2026-05-04 23:28 | 53.97366 | -10.98839 | 37001 ft | 465 kts | 92° |
| 2026-05-04 23:28 | 53.97128 | -10.87862 | 37001 ft | 465 kts | 92° |
| 2026-05-04 23:29 | 53.96881 | -10.76960 | 37001 ft | 465 kts | 92° |
| 2026-05-04 23:29 | 53.96622 | -10.65969 | 37001 ft | 465 kts | 92° |
| 2026-05-04 23:30 | 53.96354 | -10.54993 | 37001 ft | 465 kts | 92° |
| 2026-05-04 23:30 | 53.96076 | -10.44015 | 37001 ft | 465 kts | 92° |
| 2026-05-04 23:31 | 53.95787 | -10.33037 | 37001 ft | 465 kts | 92° |
| 2026-05-04 23:31 | 53.95489 | -10.22072 | 37001 ft | 465 kts | 92° |
| 2026-05-04 23:32 | 53.95183 | -10.11175 | 37001 ft | 465 kts | 92° |
| 2026-05-04 23:32 | 53.94864 | -10.00188 | 36999 ft | 465 kts | 93° |
| 2026-05-04 23:33 | 53.94544 | -9.89481 | 37003 ft | 465 kts | 93° |
| 2026-05-04 23:33 | 53.94206 | -9.78530 | 37003 ft | 465 kts | 93° |
| 2026-05-04 23:34 | 53.93858 | -9.67569 | 37001 ft | 466 kts | 93° |
| 2026-05-04 23:34 | 53.93502 | -9.56639 | 37004 ft | 466 kts | 93° |
| 2026-05-04 23:35 | 53.93133 | -9.45645 | 37001 ft | 466 kts | 93° |
| 2026-05-04 23:35 | 53.92754 | -9.34660 | 36997 ft | 467 kts | 93° |
| 2026-05-04 23:36 | 53.92364 | -9.23650 | 37004 ft | 466 kts | 93° |
| 2026-05-04 23:36 | 53.91968 | -9.12727 | 37000 ft | 466 kts | 94° |
| 2026-05-04 23:37 | 53.91560 | -9.01756 | 37001 ft | 466 kts | 94° |
| 2026-05-04 23:37 | 53.91152 | -8.91010 | 37000 ft | 465 kts | 94° |
| 2026-05-04 23:38 | 53.90459 | -8.80156 | 37001 ft | 465 kts | 101° |
| 2026-05-04 23:38 | 53.88749 | -8.69660 | 36998 ft | 465 kts | 107° |
| 2026-05-04 23:39 | 53.86857 | -8.59145 | 37003 ft | 465 kts | 107° |
| 2026-05-04 23:39 | 53.84986 | -8.48678 | 37000 ft | 466 kts | 107° |
| 2026-05-04 23:40 | 53.83135 | -8.38236 | 37002 ft | 466 kts | 107° |
| 2026-05-04 23:40 | 53.81271 | -8.27720 | 37001 ft | 466 kts | 107° |
| 2026-05-04 23:41 | 53.79397 | -8.17215 | 37002 ft | 466 kts | 107° |
| 2026-05-04 23:41 | 53.77515 | -8.06722 | 37001 ft | 466 kts | 107° |
| 2026-05-04 23:42 | 53.75662 | -7.96463 | 37002 ft | 466 kts | 107° |
| 2026-05-04 23:42 | 53.73765 | -7.86012 | 37001 ft | 465 kts | 107° |
| 2026-05-04 23:43 | 53.71857 | -7.75562 | 37001 ft | 465 kts | 107° |
| 2026-05-04 23:43 | 53.69939 | -7.65120 | 37001 ft | 465 kts | 107° |
| 2026-05-04 23:44 | 53.68012 | -7.54684 | 37002 ft | 465 kts | 107° |
| 2026-05-04 23:44 | 53.66075 | -7.44252 | 37001 ft | 465 kts | 107° |
| 2026-05-04 23:45 | 53.64141 | -7.33900 | 37001 ft | 465 kts | 107° |
| 2026-05-04 23:45 | 53.62189 | -7.23501 | 37001 ft | 466 kts | 108° |
| 2026-05-04 23:46 | 53.60225 | -7.13101 | 37002 ft | 466 kts | 108° |
| 2026-05-04 23:46 | 53.58254 | -7.02718 | 37001 ft | 466 kts | 108° |
| 2026-05-04 23:47 | 53.56311 | -6.92543 | 37001 ft | 466 kts | 108° |
| 2026-05-04 23:47 | 53.54319 | -6.82163 | 37001 ft | 466 kts | 108° |
| 2026-05-04 23:48 | 53.52322 | -6.71812 | 37001 ft | 466 kts | 108° |
| 2026-05-04 23:48 | 53.50311 | -6.61450 | 37001 ft | 466 kts | 108° |
| 2026-05-04 23:49 | 53.48308 | -6.51180 | 37001 ft | 466 kts | 108° |
| 2026-05-04 23:49 | 53.46296 | -6.40922 | 37002 ft | 466 kts | 108° |
| 2026-05-04 23:50 | 53.44261 | -6.30599 | 37001 ft | 466 kts | 108° |
| 2026-05-04 23:50 | 53.42212 | -6.20263 | 37001 ft | 466 kts | 108° |
| 2026-05-04 23:51 | 53.40171 | -6.10016 | 37002 ft | 465 kts | 108° |
| 2026-05-04 23:51 | 53.38131 | -5.99832 | 37001 ft | 465 kts | 108° |
| 2026-05-04 23:52 | 53.36082 | -5.89652 | 37001 ft | 465 kts | 109° |
| 2026-05-04 23:52 | 53.34018 | -5.79456 | 37001 ft | 465 kts | 109° |
| 2026-05-04 23:53 | 53.31933 | -5.69200 | 37001 ft | 465 kts | 109° |
| 2026-05-04 23:53 | 53.29840 | -5.58954 | 37001 ft | 465 kts | 109° |
| 2026-05-04 23:54 | 53.28144 | -5.48589 | 37007 ft | 464 kts | 100° |
| 2026-05-04 23:54 | 53.27584 | -5.37844 | 37006 ft | 464 kts | 92° |
| 2026-05-04 23:55 | 53.27401 | -5.28860 | 37002 ft | 465 kts | 92° |
| 2026-05-04 23:56 | 53.26942 | -5.12681 | 37002 ft | 465 kts | 93° |
| 2026-05-04 23:56 | 53.26577 | -5.01892 | 37001 ft | 465 kts | 93° |
| 2026-05-04 23:57 | 53.26214 | -4.91319 | 37001 ft | 465 kts | 93° |
| 2026-05-04 23:57 | 53.25840 | -4.80529 | 37001 ft | 465 kts | 93° |
| 2026-05-04 23:58 | 53.25459 | -4.69745 | 37001 ft | 465 kts | 93° |
| 2026-05-04 23:58 | 53.25094 | -4.58930 | 37001 ft | 465 kts | 93° |
| 2026-05-04 23:59 | 53.24728 | -4.48206 | 37001 ft | 465 kts | 93° |
| 2026-05-04 23:59 | 53.24348 | -4.37439 | 37001 ft | 465 kts | 93° |
| 2026-05-05 00:00 | 53.23955 | -4.26626 | 37002 ft | 465 kts | 94° |
| 2026-05-05 00:00 | 53.23553 | -4.15836 | 37001 ft | 465 kts | 94° |
| 2026-05-05 00:01 | 53.23145 | -4.05099 | 37002 ft | 465 kts | 94° |
| 2026-05-05 00:01 | 53.22728 | -3.94489 | 36996 ft | 466 kts | 94° |
| 2026-05-05 00:02 | 53.21865 | -3.83795 | 37008 ft | 466 kts | 105° |
| 2026-05-05 00:02 | 53.19438 | -3.73815 | 37004 ft | 466 kts | 118° |
| 2026-05-05 00:03 | 53.16337 | -3.64292 | 37004 ft | 467 kts | 118° |
| 2026-05-05 00:03 | 53.13213 | -3.54766 | 37000 ft | 468 kts | 118° |
| 2026-05-05 00:04 | 53.10131 | -3.45292 | 37003 ft | 468 kts | 118° |
| 2026-05-05 00:04 | 53.07038 | -3.35754 | 37002 ft | 468 kts | 118° |
| 2026-05-05 00:05 | 53.03940 | -3.26219 | 36999 ft | 468 kts | 118° |
| 2026-05-05 00:05 | 53.00836 | -3.16707 | 37001 ft | 468 kts | 118° |
| 2026-05-05 00:06 | 52.97727 | -3.07217 | 37005 ft | 468 kts | 118° |
| 2026-05-05 00:06 | 52.94699 | -2.98014 | 37000 ft | 467 kts | 118° |
| 2026-05-05 00:07 | 52.91580 | -2.88570 | 37000 ft | 466 kts | 118° |
| 2026-05-05 00:07 | 52.88459 | -2.79157 | 37001 ft | 465 kts | 118° |
| 2026-05-05 00:08 | 52.85333 | -2.69762 | 37001 ft | 465 kts | 119° |
| 2026-05-05 00:08 | 52.82202 | -2.60390 | 37001 ft | 465 kts | 119° |
| 2026-05-05 00:09 | 52.79086 | -2.51097 | 37002 ft | 465 kts | 119° |
| 2026-05-05 00:09 | 52.75947 | -2.41773 | 37001 ft | 465 kts | 119° |
| 2026-05-05 00:10 | 52.72810 | -2.32486 | 37001 ft | 465 kts | 119° |
| 2026-05-05 00:10 | 52.69664 | -2.23211 | 37002 ft | 465 kts | 119° |
| 2026-05-05 00:11 | 52.66511 | -2.13946 | 37002 ft | 466 kts | 119° |
| 2026-05-05 00:11 | 52.63333 | -2.04646 | 37000 ft | 466 kts | 119° |
| 2026-05-05 00:12 | 52.60197 | -1.95500 | 37002 ft | 466 kts | 119° |
| 2026-05-05 00:12 | 52.56999 | -1.86210 | 37001 ft | 467 kts | 119° |
| 2026-05-05 00:13 | 52.53811 | -1.76983 | 37002 ft | 467 kts | 120° |
| 2026-05-05 00:13 | 52.50596 | -1.67712 | 37001 ft | 466 kts | 120° |
| 2026-05-05 00:14 | 52.47379 | -1.58468 | 37000 ft | 466 kts | 120° |
| 2026-05-05 00:14 | 52.44156 | -1.49243 | 37002 ft | 466 kts | 120° |
| 2026-05-05 00:15 | 52.40922 | -1.40020 | 37001 ft | 466 kts | 120° |
| 2026-05-05 00:15 | 52.37683 | -1.30816 | 37001 ft | 466 kts | 120° |
| 2026-05-05 00:16 | 52.34455 | -1.21678 | 37001 ft | 466 kts | 120° |
| 2026-05-05 00:16 | 52.31206 | -1.12512 | 37001 ft | 466 kts | 120° |
| 2026-05-05 00:17 | 52.27945 | -1.03348 | 37002 ft | 466 kts | 120° |
| 2026-05-05 00:17 | 52.24726 | -0.94334 | 37001 ft | 466 kts | 120° |
| 2026-05-05 00:18 | 52.21453 | -0.85200 | 37002 ft | 466 kts | 120° |
| 2026-05-05 00:18 | 52.18192 | -0.76135 | 37001 ft | 466 kts | 120° |
| 2026-05-05 00:19 | 52.14902 | -0.67022 | 37002 ft | 466 kts | 120° |
| 2026-05-05 00:19 | 52.11612 | -0.57940 | 37001 ft | 466 kts | 120° |
| 2026-05-05 00:20 | 52.08311 | -0.48861 | 37002 ft | 466 kts | 121° |
| 2026-05-05 00:20 | 52.05004 | -0.39798 | 37000 ft | 466 kts | 121° |
| 2026-05-05 00:21 | 52.01694 | -0.30759 | 37002 ft | 466 kts | 121° |
| 2026-05-05 00:21 | 51.98397 | -0.21788 | 37000 ft | 466 kts | 121° |
| 2026-05-05 00:22 | 51.95074 | -0.12778 | 37001 ft | 466 kts | 121° |
| 2026-05-05 00:22 | 51.91759 | -0.03821 | 37001 ft | 466 kts | 121° |
| 2026-05-05 00:23 | 51.88477 | 0.05014 | 37002 ft | 466 kts | 121° |
| 2026-05-05 00:23 | 51.85129 | 0.13996 | 37001 ft | 466 kts | 121° |
| 2026-05-05 00:24 | 51.81773 | 0.22969 | 37001 ft | 466 kts | 121° |
| 2026-05-05 00:24 | 51.78429 | 0.31878 | 37001 ft | 466 kts | 121° |
| 2026-05-05 00:25 | 51.75057 | 0.40829 | 37002 ft | 466 kts | 121° |
| 2026-05-05 00:25 | 51.71684 | 0.49752 | 37001 ft | 466 kts | 121° |
| 2026-05-05 00:26 | 51.68303 | 0.58665 | 37001 ft | 466 kts | 121° |
| 2026-05-05 00:26 | 51.64918 | 0.67558 | 37002 ft | 465 kts | 121° |
| 2026-05-05 00:27 | 51.61521 | 0.76451 | 37001 ft | 465 kts | 121° |
| 2026-05-05 00:27 | 51.58145 | 0.85259 | 37001 ft | 465 kts | 122° |
| 2026-05-05 00:28 | 51.54739 | 0.94115 | 37001 ft | 465 kts | 122° |
| 2026-05-05 00:28 | 51.51387 | 1.02801 | 37001 ft | 465 kts | 122° |
| 2026-05-05 00:29 | 51.47969 | 1.11628 | 37001 ft | 465 kts | 122° |
| 2026-05-05 00:29 | 51.44546 | 1.20437 | 37002 ft | 465 kts | 122° |
| 2026-05-05 00:30 | 51.41115 | 1.29237 | 37001 ft | 465 kts | 122° |
| 2026-05-05 00:30 | 51.37680 | 1.38017 | 37001 ft | 465 kts | 122° |
| 2026-05-05 00:31 | 51.34260 | 1.46730 | 37002 ft | 465 kts | 122° |
| 2026-05-05 00:31 | 51.30805 | 1.55500 | 37001 ft | 465 kts | 122° |
| 2026-05-05 00:32 | 51.27342 | 1.64263 | 37001 ft | 465 kts | 122° |
| 2026-05-05 00:32 | 51.23874 | 1.73009 | 37002 ft | 465 kts | 122° |
| 2026-05-05 00:33 | 51.20425 | 1.81680 | 37001 ft | 465 kts | 122° |
| 2026-05-05 00:33 | 51.16949 | 1.90392 | 37001 ft | 465 kts | 122° |
| 2026-05-05 00:34 | 51.13895 | 1.99457 | 36998 ft | 465 kts | 110° |
| 2026-05-05 00:34 | 51.12473 | 2.09182 | 36997 ft | 462 kts | 96° |
| 2026-05-05 00:35 | 51.11195 | 2.19233 | 37004 ft | 463 kts | 104° |
| 2026-05-05 00:35 | 51.09532 | 2.29176 | 37003 ft | 465 kts | 105° |
| 2026-05-05 00:36 | 51.07893 | 2.39089 | 37002 ft | 466 kts | 104° |
| 2026-05-05 00:36 | 51.06283 | 2.49078 | 37002 ft | 467 kts | 104° |
| 2026-05-05 00:37 | 51.04684 | 2.59078 | 37001 ft | 467 kts | 104° |
| 2026-05-05 00:37 | 51.03077 | 2.69084 | 37001 ft | 467 kts | 104° |
| 2026-05-05 00:38 | 51.01735 | 2.77381 | 37001 ft | 467 kts | 104° |
| 2026-05-05 00:38 | 50.99846 | 2.88985 | 37001 ft | 466 kts | 104° |
| 2026-05-05 00:39 | 50.98210 | 2.98961 | 37001 ft | 466 kts | 104° |
| 2026-05-05 00:39 | 50.96876 | 3.07058 | 37001 ft | 466 kts | 104° |
| 2026-05-05 00:40 | 50.95229 | 3.17002 | 37001 ft | 465 kts | 104° |
| 2026-05-05 00:40 | 50.93584 | 3.26873 | 37001 ft | 465 kts | 105° |
| 2026-05-05 00:41 | 50.91921 | 3.36798 | 37002 ft | 465 kts | 105° |
| 2026-05-05 00:41 | 50.90249 | 3.46720 | 37001 ft | 465 kts | 105° |
| 2026-05-05 00:42 | 50.88589 | 3.56514 | 37001 ft | 465 kts | 105° |
| 2026-05-05 00:42 | 50.86899 | 3.66427 | 37002 ft | 465 kts | 105° |
| 2026-05-05 00:43 | 50.85204 | 3.76310 | 37001 ft | 465 kts | 105° |
| 2026-05-05 00:43 | 50.83509 | 3.86144 | 37002 ft | 466 kts | 105° |
| 2026-05-05 00:44 | 50.81793 | 3.96041 | 37002 ft | 466 kts | 105° |
| 2026-05-05 00:44 | 50.80114 | 4.05671 | 37001 ft | 466 kts | 105° |
| 2026-05-05 00:45 | 50.78397 | 4.15465 | 37001 ft | 466 kts | 105° |
| 2026-05-05 00:45 | 50.76660 | 4.25319 | 37001 ft | 466 kts | 105° |
| 2026-05-05 00:46 | 50.74913 | 4.35179 | 37000 ft | 466 kts | 105° |
| 2026-05-05 00:46 | 50.73165 | 4.44988 | 37002 ft | 466 kts | 105° |
| 2026-05-05 00:47 | 50.71390 | 4.54890 | 37001 ft | 466 kts | 105° |
| 2026-05-05 00:47 | 50.69627 | 4.64678 | 37001 ft | 466 kts | 106° |
| 2026-05-05 00:48 | 50.67843 | 4.74526 | 37001 ft | 466 kts | 106° |
| 2026-05-05 00:48 | 50.66051 | 4.84366 | 37002 ft | 466 kts | 106° |
| 2026-05-05 00:49 | 50.64263 | 4.94128 | 37001 ft | 466 kts | 106° |
| 2026-05-05 00:49 | 50.62492 | 5.03755 | 37001 ft | 466 kts | 106° |
| 2026-05-05 00:50 | 50.60674 | 5.13576 | 37001 ft | 467 kts | 106° |
| 2026-05-05 00:50 | 50.58847 | 5.23402 | 37001 ft | 467 kts | 106° |
| 2026-05-05 00:51 | 50.57023 | 5.33154 | 37002 ft | 467 kts | 106° |
| 2026-05-05 00:51 | 50.55181 | 5.42958 | 37000 ft | 467 kts | 106° |
| 2026-05-05 00:52 | 50.53331 | 5.52752 | 37003 ft | 467 kts | 107° |
| 2026-05-05 00:52 | 50.51476 | 5.62528 | 37000 ft | 467 kts | 107° |
| 2026-05-05 00:53 | 50.49638 | 5.72322 | 37002 ft | 467 kts | 106° |
| 2026-05-05 00:53 | 50.47823 | 5.82059 | 37000 ft | 467 kts | 106° |
| 2026-05-05 00:54 | 50.45984 | 5.91865 | 36982 ft | 468 kts | 106° |
| 2026-05-05 00:54 | 50.45048 | 5.96825 | 36262 ft | 478 kts | 106° |
| 2026-05-05 00:54 | 50.44140 | 6.01623 | 35604 ft | 476 kts | 107° |
| 2026-05-05 00:54 | 50.43199 | 6.06585 | 34784 ft | 475 kts | 107° |
| 2026-05-05 00:55 | 50.42254 | 6.11551 | 33972 ft | 474 kts | 107° |
| 2026-05-05 00:55 | 50.41322 | 6.16434 | 33119 ft | 473 kts | 107° |
| 2026-05-05 00:55 | 50.40376 | 6.21384 | 32231 ft | 473 kts | 107° |
| 2026-05-05 00:55 | 50.39416 | 6.26318 | 31274 ft | 470 kts | 108° |
| 2026-05-05 00:56 | 50.38224 | 6.31051 | 29849 ft | 468 kts | 116° |
| 2026-05-05 00:56 | 50.36748 | 6.35588 | 28600 ft | 466 kts | 117° |
| 2026-05-05 00:56 | 50.35282 | 6.40070 | 27528 ft | 459 kts | 117° |
| 2026-05-05 00:56 | 50.33846 | 6.44490 | 26545 ft | 450 kts | 117° |
| 2026-05-05 00:57 | 50.32456 | 6.48797 | 25561 ft | 442 kts | 116° |
| 2026-05-05 00:57 | 50.31079 | 6.53085 | 24608 ft | 441 kts | 116° |
| 2026-05-05 00:57 | 50.29713 | 6.57344 | 23884 ft | 435 kts | 116° |
| 2026-05-05 00:57 | 50.28348 | 6.61602 | 23520 ft | 433 kts | 116° |
| 2026-05-05 00:58 | 50.27025 | 6.65729 | 22824 ft | 418 kts | 116° |
| 2026-05-05 00:58 | 50.25735 | 6.69742 | 21897 ft | 420 kts | 116° |
| 2026-05-05 00:58 | 50.24422 | 6.73819 | 21184 ft | 414 kts | 117° |
| 2026-05-05 00:58 | 50.23147 | 6.77768 | 20608 ft | 402 kts | 117° |
| 2026-05-05 00:59 | 50.21892 | 6.81648 | 20061 ft | 398 kts | 117° |
| 2026-05-05 00:59 | 50.20655 | 6.85466 | 19540 ft | 394 kts | 117° |
| 2026-05-05 00:59 | 50.19436 | 6.89224 | 18998 ft | 390 kts | 117° |
| 2026-05-05 00:59 | 50.18216 | 6.92980 | 18481 ft | 386 kts | 117° |
| 2026-05-05 01:00 | 50.17004 | 6.96705 | 17944 ft | 383 kts | 117° |
| 2026-05-05 01:00 | 50.15843 | 7.00271 | 17439 ft | 379 kts | 117° |
| 2026-05-05 01:00 | 50.14653 | 7.03917 | 16910 ft | 376 kts | 117° |
| 2026-05-05 01:00 | 50.13468 | 7.07546 | 16391 ft | 372 kts | 117° |
| 2026-05-05 01:01 | 50.12299 | 7.11118 | 15877 ft | 369 kts | 117° |
| 2026-05-05 01:01 | 50.11136 | 7.14668 | 15373 ft | 365 kts | 117° |
| 2026-05-05 01:01 | 50.09982 | 7.18183 | 14849 ft | 362 kts | 117° |
| 2026-05-05 01:01 | 50.08843 | 7.21651 | 14369 ft | 358 kts | 117° |
| 2026-05-05 01:02 | 50.07725 | 7.25049 | 13869 ft | 356 kts | 117° |
| 2026-05-05 01:02 | 50.06594 | 7.28483 | 13369 ft | 357 kts | 117° |
| 2026-05-05 01:02 | 50.05450 | 7.31948 | 12864 ft | 363 kts | 117° |
| 2026-05-05 01:02 | 50.04290 | 7.35459 | 12346 ft | 366 kts | 117° |
| 2026-05-05 01:03 | 50.03125 | 7.38980 | 11822 ft | 364 kts | 117° |
| 2026-05-05 01:03 | 50.01976 | 7.42448 | 11305 ft | 359 kts | 117° |
| 2026-05-05 01:03 | 50.00841 | 7.45871 | 10870 ft | 352 kts | 117° |
| 2026-05-05 01:03 | 49.99746 | 7.49168 | 10725 ft | 335 kts | 117° |
| 2026-05-05 01:04 | 49.98694 | 7.52329 | 10565 ft | 323 kts | 117° |
| 2026-05-05 01:04 | 49.96701 | 7.58314 | 10291 ft | 301 kts | 117° |
| 2026-05-05 01:04 | 49.95766 | 7.61113 | 10179 ft | 290 kts | 117° |
| 2026-05-05 01:05 | 49.94852 | 7.63851 | 10070 ft | 280 kts | 117° |
| 2026-05-05 01:05 | 49.93969 | 7.66491 | 9858 ft | 273 kts | 117° |
| 2026-05-05 01:05 | 49.93099 | 7.69088 | 9572 ft | 269 kts | 117° |
| 2026-05-05 01:05 | 49.92241 | 7.71651 | 9297 ft | 266 kts | 117° |
| 2026-05-05 01:06 | 49.91390 | 7.74188 | 9022 ft | 263 kts | 117° |
| 2026-05-05 01:06 | 49.90550 | 7.76694 | 8721 ft | 261 kts | 117° |
| 2026-05-05 01:06 | 49.89714 | 7.79181 | 8439 ft | 258 kts | 117° |
| 2026-05-05 01:06 | 49.88885 | 7.81642 | 8156 ft | 255 kts | 117° |
| 2026-05-05 01:07 | 49.88076 | 7.84041 | 7877 ft | 253 kts | 117° |
| 2026-05-05 01:07 | 49.87465 | 7.86530 | 7578 ft | 246 kts | 95° |
| 2026-05-05 01:07 | 49.87694 | 7.89136 | 7352 ft | 247 kts | 70° |
| 2026-05-05 01:07 | 49.88317 | 7.91660 | 7102 ft | 256 kts | 69° |
| 2026-05-05 01:08 | 49.88968 | 7.94262 | 6822 ft | 259 kts | 68° |
| 2026-05-05 01:08 | 49.89640 | 7.96851 | 6539 ft | 257 kts | 68° |
| 2026-05-05 01:08 | 49.90286 | 7.99421 | 6280 ft | 254 kts | 69° |
| 2026-05-05 01:08 | 49.90891 | 8.01895 | 6030 ft | 253 kts | 69° |
| 2026-05-05 01:09 | 49.91506 | 8.04442 | 5769 ft | 252 kts | 69° |
| 2026-05-05 01:09 | 49.92121 | 8.06996 | 5504 ft | 252 kts | 69° |
| 2026-05-05 01:09 | 49.92726 | 8.09517 | 5311 ft | 248 kts | 69° |
| 2026-05-05 01:09 | 49.93314 | 8.11969 | 5199 ft | 236 kts | 69° |
| 2026-05-05 01:10 | 49.93851 | 8.14204 | 5084 ft | 224 kts | 69° |
| 2026-05-05 01:10 | 49.94384 | 8.16423 | 4977 ft | 209 kts | 69° |
| 2026-05-05 01:10 | 49.94870 | 8.18449 | 4837 ft | 198 kts | 69° |
| 2026-05-05 01:10 | 49.95333 | 8.20376 | 4679 ft | 185 kts | 69° |
| 2026-05-05 01:11 | 49.95774 | 8.22212 | 4461 ft | 180 kts | 70° |
| 2026-05-05 01:11 | 49.96204 | 8.24011 | 4241 ft | 177 kts | 70° |
| 2026-05-05 01:11 | 49.96626 | 8.25763 | 3986 ft | 171 kts | 69° |
| 2026-05-05 01:11 | 49.97031 | 8.27447 | 3794 ft | 161 kts | 70° |
| 2026-05-05 01:12 | 49.97404 | 8.29015 | 3551 ft | 148 kts | 70° |
| 2026-05-05 01:12 | 49.97746 | 8.30443 | 3403 ft | 145 kts | 69° |
| 2026-05-05 01:12 | 49.98098 | 8.31912 | 3218 ft | 145 kts | 69° |
| 2026-05-05 01:12 | 49.98449 | 8.33374 | 3013 ft | 143 kts | 69° |
| 2026-05-05 01:13 | 49.98793 | 8.34811 | 2823 ft | 142 kts | 69° |
| 2026-05-05 01:13 | 49.99139 | 8.36254 | 2634 ft | 142 kts | 69° |
| 2026-05-05 01:13 | 49.99485 | 8.37697 | 2455 ft | 142 kts | 69° |
| 2026-05-05 01:13 | 49.99825 | 8.39120 | 2260 ft | 142 kts | 69° |
| 2026-05-05 01:14 | 50.00173 | 8.40573 | 2067 ft | 141 kts | 69° |
| 2026-05-05 01:14 | 50.00509 | 8.41977 | 1874 ft | 141 kts | 69° |
| 2026-05-05 01:14 | 50.00852 | 8.43406 | 1688 ft | 141 kts | 70° |
| 2026-05-05 01:14 | 50.01192 | 8.44830 | 1471 ft | 140 kts | 70° |
| 2026-05-05 01:15 | 50.01530 | 8.46241 | 1314 ft | 139 kts | 69° |
| 2026-05-05 01:15 | 50.01877 | 8.47654 | 1138 ft | 140 kts | 69° |
| 2026-05-05 01:15 | 50.02219 | 8.49062 | 954 ft | 139 kts | 70° |
| 2026-05-05 01:15 | 50.02553 | 8.50475 | 781 ft | 139 kts | 70° |
| 2026-05-05 01:16 | 50.02880 | 8.51857 | 595 ft | 139 kts | 69° |
| 2026-05-05 01:16 | 50.03214 | 8.53243 | 418 ft | 137 kts | 70° |
| 2026-05-05 01:16 | 50.03527 | 8.54577 | 363 ft | 131 kts | 69° |
| 2026-05-05 01:16 | 50.03786 | 8.55654 | 361 ft | 104 kts | 70° |
| 2026-05-05 01:17 | 50.03971 | 8.56428 | 365 ft | 57 kts | 70° |
| 2026-05-05 01:17 | 50.04033 | 8.56641 | 369 ft | 17 kts | 45° |
| 2026-05-05 01:17 | 50.04102 | 8.56717 | 370 ft | 10 kts | 30° |
| 2026-05-05 01:17 | 50.04169 | 8.56768 | 369 ft | 11 kts | 17° |
| 2026-05-05 01:18 | 50.04224 | 8.56744 | 368 ft | 4 kts | 302° |
| 2026-05-05 01:18 | 50.04224 | 8.56688 | 367 ft | 7 kts | 255° |
| 2026-05-05 01:18 | 50.04204 | 8.56602 | 363 ft | 10 kts | 250° |
| 2026-05-05 01:18 | 50.04178 | 8.56492 | 366 ft | 12 kts | 249° |
| 2026-05-05 01:19 | 50.04148 | 8.56369 | 365 ft | 14 kts | 249° |
| 2026-05-05 01:19 | 50.04112 | 8.56218 | 361 ft | 16 kts | 250° |
| 2026-05-05 01:19 | 50.04073 | 8.56055 | 363 ft | 17 kts | 250° |
| 2026-05-05 01:19 | 50.04032 | 8.55880 | 360 ft | 18 kts | 250° |
| 2026-05-05 01:20 | 50.03987 | 8.55692 | 358 ft | 19 kts | 250° |
| 2026-05-05 01:20 | 50.03941 | 8.55498 | 357 ft | 19 kts | 250° |
| 2026-05-05 01:20 | 50.03894 | 8.55301 | 361 ft | 19 kts | 250° |
| 2026-05-05 01:20 | 50.03846 | 8.55103 | 358 ft | 19 kts | 249° |
| 2026-05-05 01:21 | 50.03799 | 8.54906 | 359 ft | 19 kts | 250° |
| 2026-05-05 01:21 | 50.03751 | 8.54704 | 358 ft | 20 kts | 250° |
| 2026-05-05 01:21 | 50.03703 | 8.54502 | 356 ft | 16 kts | 249° |
| 2026-05-05 01:21 | 50.03722 | 8.54383 | 354 ft | 13 kts | 330° |
| 2026-05-05 01:22 | 50.03804 | 8.54333 | 357 ft | 13 kts | 340° |
| 2026-05-05 01:22 | 50.03889 | 8.54284 | 358 ft | 13 kts | 339° |
| 2026-05-05 01:22 | 50.03946 | 8.54305 | 360 ft | 8 kts | 63° |
| 2026-05-05 01:22 | 50.03959 | 8.54360 | 359 ft | 2 kts | 69° |
| 2026-05-05 01:23 | 50.03962 | 8.54374 | 357 ft | 1 kts | 69° |
| 2026-05-05 01:23 | 50.03964 | 8.54380 | 357 ft | 0 kts | 69° |